Time;durP1;ratioP1;P1;durP2;ratioP2;P2;SDS_P1;SDS_P2;PMS_P1;PMS_P2;Temp;Humidity;BMP_temperature;BMP_pressure;BME280_temperature;BME280_humidity;BME280_pressure;Samples;Min_cycle;Max_cycle;Signal;HPM_P1;HPM_P2
2023/08/31 00:01:49;;;;;;;1.50;1.40;;;21.00;92.50;;;;;;5018357;28;20195;-71
2023/08/31 00:04:15;;;;;;;1.85;1.70;;;21.00;92.50;;;;;;5054613;28;20213;-67
2023/08/31 00:06:42;;;;;;;1.50;1.40;;;21.00;92.50;;;;;;5053471;28;20229;-68
2023/08/31 00:09:10;;;;;;;1.58;1.40;;;21.00;92.50;;;;;;5029093;28;20194;-68
2023/08/31 00:11:36;;;;;;;1.80;1.70;;;21.00;92.50;;;;;;5045380;28;20186;-68
2023/08/31 00:14:02;;;;;;;1.85;1.75;;;21.00;92.60;;;;;;5045186;28;20182;-68
2023/08/31 00:16:29;;;;;;;1.40;1.30;;;21.00;92.50;;;;;;5036733;28;20241;-68
2023/08/31 00:18:56;;;;;;;1.67;1.55;;;21.00;92.50;;;;;;5054513;28;20186;-68
2023/08/31 00:21:23;;;;;;;1.67;1.45;;;21.00;92.40;;;;;;5035572;28;20208;-69
2023/08/31 00:23:49;;;;;;;1.60;1.50;;;21.00;92.40;;;;;;5035470;28;20201;-68
2023/08/31 00:26:15;;;;;;;1.65;1.52;;;21.00;92.50;;;;;;5053082;28;20215;-68
2023/08/31 00:28:44;;;;;;;1.65;1.55;;;21.00;92.50;;;;;;5027642;28;20193;-69
2023/08/31 00:31:10;;;;;;;1.50;1.40;;;21.00;92.50;;;;;;5052267;28;20237;-68
2023/08/31 00:33:38;;;;;;;1.58;1.48;;;21.00;92.50;;;;;;5051784;28;20657;-68
2023/08/31 00:36:04;;;;;;;2.08;1.55;;;21.00;92.50;;;;;;5043384;28;20194;-68
2023/08/31 00:38:33;;;;;;;1.48;1.38;;;21.00;92.40;;;;;;5028798;28;20266;-68
2023/08/31 00:41:00;;;;;;;1.40;1.30;;;21.00;92.40;;;;;;5025940;28;20217;-68
2023/08/31 00:43:26;;;;;;;1.55;1.45;;;21.00;92.50;;;;;;5029522;28;20218;-68
2023/08/31 00:45:59;;;;;;;1.60;1.50;;;21.00;92.50;;;;;;5048199;28;20264;-68
2023/08/31 00:48:25;;;;;;;1.50;1.40;;;21.00;92.50;;;;;;5028823;28;20229;-68
2023/08/31 00:50:51;;;;;;;1.60;1.50;;;21.00;92.40;;;;;;5040068;28;20225;-68
2023/08/31 00:53:20;;;;;;;1.50;1.40;;;21.00;92.50;;;;;;5028634;28;20191;-71
2023/08/31 00:55:47;;;;;;;1.42;1.33;;;21.00;92.40;;;;;;5042933;28;20213;-68
2023/08/31 00:58:13;;;;;;;1.50;1.40;;;21.00;92.40;;;;;;5031626;28;20179;-67
2023/08/31 01:01:01;;;;;;;1.40;1.30;;;20.90;92.40;;;;;;5040001;28;20179;-68
2023/08/31 01:03:36;;;;;;;1.92;1.80;;;20.90;92.40;;;;;;5046681;28;20661;-68
2023/08/31 01:06:22;;;;;;;1.30;1.20;;;21.00;92.40;;;;;;5051205;28;20213;-68
2023/08/31 01:08:56;;;;;;;1.90;1.50;;;21.00;92.40;;;;;;5051678;28;20186;-68
2023/08/31 01:11:37;;;;;;;1.60;1.50;;;21.00;92.40;;;;;;5034867;28;20211;-68
2023/08/31 01:14:19;;;;;;;1.58;1.48;;;20.90;92.40;;;;;;5050747;28;20265;-69
2023/08/31 01:16:49;;;;;;;1.20;1.20;;;21.00;92.60;;;;;;5031198;28;20325;-67
2023/08/31 01:19:44;;;;;;;1.48;1.35;;;20.90;92.40;;;;;;4990303;28;1049356;-68
2023/08/31 01:22:21;;;;;;;1.08;1.08;;;20.90;92.40;;;;;;5044169;28;20182;-68
2023/08/31 01:24:47;;;;;;;1.50;1.40;;;20.90;92.40;;;;;;5051965;28;20178;-68
2023/08/31 01:27:14;;;;;;;2.47;1.38;;;20.90;92.40;;;;;;5027241;28;20199;-68
2023/08/31 01:29:40;;;;;;;1.52;1.17;;;20.90;92.40;;;;;;5052108;28;20281;-68
2023/08/31 01:32:07;;;;;;;1.35;1.25;;;20.90;92.30;;;;;;5033180;28;20267;-68
2023/08/31 01:34:34;;;;;;;1.27;1.20;;;20.90;92.30;;;;;;5042470;28;20195;-68
2023/08/31 01:37:11;;;;;;;1.35;1.25;;;20.90;92.30;;;;;;5040636;28;20203;-68
2023/08/31 01:39:59;;;;;;;1.90;1.70;;;20.90;92.60;;;;;;5045662;28;20237;-67
2023/08/31 01:42:28;;;;;;;1.30;1.20;;;20.90;92.30;;;;;;5045417;28;20183;-68
2023/08/31 01:44:57;;;;;;;1.30;1.20;;;20.90;92.30;;;;;;5052631;28;20218;-68
2023/08/31 01:47:25;;;;;;;1.30;1.20;;;20.90;92.40;;;;;;5044359;28;20321;-67
2023/08/31 01:49:52;;;;;;;1.20;1.10;;;20.90;92.30;;;;;;5034448;28;20690;-67
2023/08/31 01:52:17;;;;;;;1.65;1.55;;;20.90;92.30;;;;;;5027402;28;20178;-68
2023/08/31 01:54:43;;;;;;;1.40;1.30;;;20.90;92.30;;;;;;5044447;28;20193;-66
2023/08/31 01:57:10;;;;;;;1.15;1.00;;;20.90;92.30;;;;;;5051895;28;20275;-68
2023/08/31 01:59:56;;;;;;;1.30;1.20;;;20.90;92.30;;;;;;5053088;28;20221;-68
2023/08/31 02:02:22;;;;;;;1.73;1.30;;;20.90;92.30;;;;;;5027510;28;20662;-70
2023/08/31 02:04:48;;;;;;;1.48;1.38;;;20.90;92.20;;;;;;5027540;28;20187;-68
2023/08/31 02:07:13;;;;;;;1.35;1.25;;;20.90;92.20;;;;;;5039775;28;20222;-68
2023/08/31 02:09:39;;;;;;;1.27;1.17;;;20.90;92.20;;;;;;5023581;28;20215;-67
2023/08/31 02:12:05;;;;;;;1.70;1.27;;;20.90;92.20;;;;;;5049446;28;20193;-68
2023/08/31 02:14:31;;;;;;;1.50;1.40;;;20.90;92.20;;;;;;5051224;28;20189;-68
2023/08/31 02:16:56;;;;;;;1.45;1.10;;;20.90;92.30;;;;;;5034553;28;20194;-68
2023/08/31 02:19:22;;;;;;;1.30;1.20;;;20.90;92.20;;;;;;5051254;28;20280;-68
2023/08/31 02:21:48;;;;;;;1.58;1.48;;;20.90;92.20;;;;;;5035067;28;20186;-68
2023/08/31 02:24:14;;;;;;;1.20;1.10;;;20.90;92.20;;;;;;5031814;28;20190;-67
2023/08/31 02:26:40;;;;;;;1.23;1.13;;;20.90;92.20;;;;;;5046830;28;20194;-69
2023/08/31 02:29:06;;;;;;;1.20;1.10;;;20.90;92.20;;;;;;5034527;28;20190;-67
2023/08/31 02:31:32;;;;;;;1.38;1.10;;;20.90;92.20;;;;;;5044117;28;20192;-68
2023/08/31 02:33:58;;;;;;;1.40;1.30;;;20.80;92.10;;;;;;5025892;28;20186;-68
2023/08/31 02:36:25;;;;;;;1.30;1.20;;;20.90;92.20;;;;;;5026791;28;20309;-69
2023/08/31 02:38:52;;;;;;;1.40;1.30;;;20.90;92.20;;;;;;5026910;28;20714;-67
2023/08/31 02:41:18;;;;;;;1.30;1.00;;;20.80;92.10;;;;;;5033897;28;20187;-68
2023/08/31 02:43:44;;;;;;;1.25;1.15;;;20.80;92.10;;;;;;5044704;28;20265;-68
2023/08/31 02:46:10;;;;;;;1.77;1.23;;;20.80;92.10;;;;;;5038755;28;20686;-68
2023/08/31 02:48:36;;;;;;;1.13;1.05;;;20.90;92.10;;;;;;5011146;28;20246;-68
2023/08/31 02:51:02;;;;;;;2.05;1.23;;;20.80;92.10;;;;;;5025419;28;20216;-68
2023/08/31 02:53:31;;;;;;;1.20;1.10;;;20.90;92.20;;;;;;5043707;28;20189;-68
2023/08/31 02:55:57;;;;;;;1.35;1.25;;;20.80;92.00;;;;;;5025334;28;20231;-68
2023/08/31 02:58:23;;;;;;;1.08;1.00;;;20.80;92.00;;;;;;5039097;28;20358;-68
2023/08/31 03:00:49;;;;;;;1.48;1.38;;;20.90;92.10;;;;;;5023752;28;20195;-67
2023/08/31 03:03:17;;;;;;;1.20;1.10;;;20.80;92.00;;;;;;5021923;28;20202;-68
2023/08/31 03:05:44;;;;;;;1.48;1.30;;;20.90;92.10;;;;;;5014480;28;20620;-68
2023/08/31 03:08:10;;;;;;;1.15;1.10;;;20.90;92.20;;;;;;5014147;28;20198;-69
2023/08/31 03:10:38;;;;;;;2.03;1.27;;;20.80;92.00;;;;;;5030524;28;20765;-69
2023/08/31 03:13:04;;;;;;;1.80;1.33;;;20.80;92.10;;;;;;5027626;28;20659;-69
2023/08/31 03:15:34;;;;;;;1.30;1.20;;;20.90;92.10;;;;;;5025364;28;20192;-69
2023/08/31 03:18:00;;;;;;;1.40;1.30;;;20.80;92.10;;;;;;5019146;28;20196;-68
2023/08/31 03:20:25;;;;;;;1.30;1.20;;;20.80;92.10;;;;;;5011392;28;20218;-67
2023/08/31 03:22:52;;;;;;;1.30;1.20;;;20.80;92.10;;;;;;5018297;28;20256;-68
2023/08/31 03:25:17;;;;;;;1.25;1.15;;;20.80;92.10;;;;;;5011538;28;20663;-68
2023/08/31 03:27:44;;;;;;;1.20;1.15;;;20.90;92.20;;;;;;5016464;28;20226;-68
2023/08/31 03:30:10;;;;;;;1.13;1.10;;;20.80;92.00;;;;;;5021297;28;20241;-68
2023/08/31 03:32:36;;;;;;;1.00;1.00;;;20.80;92.10;;;;;;5023521;28;20179;-68
2023/08/31 03:35:03;;;;;;;1.02;1.02;;;20.80;92.10;;;;;;5013829;28;20175;-69
2023/08/31 03:37:29;;;;;;;1.33;1.17;;;20.80;92.10;;;;;;5026614;28;20239;-69
2023/08/31 03:39:55;;;;;;;1.90;1.20;;;20.80;92.10;;;;;;5018451;28;20195;-68
2023/08/31 03:42:22;;;;;;;1.10;1.00;;;20.80;92.10;;;;;;5012757;28;20198;-68
2023/08/31 03:44:48;;;;;;;1.00;1.00;;;20.80;92.00;;;;;;5008404;28;20204;-68
2023/08/31 03:47:15;;;;;;;1.20;1.10;;;20.80;92.10;;;;;;5030706;28;20219;-67
2023/08/31 03:49:41;;;;;;;1.15;1.10;;;20.80;92.10;;;;;;5030650;28;20203;-68
2023/08/31 03:52:07;;;;;;;1.17;1.08;;;20.80;92.10;;;;;;5030570;28;20198;-68
2023/08/31 03:54:33;;;;;;;1.02;1.02;;;20.80;92.10;;;;;;5026019;28;20196;-68
2023/08/31 03:56:58;;;;;;;1.42;1.33;;;20.80;92.10;;;;;;5006069;28;20208;-68
2023/08/31 03:59:25;;;;;;;1.20;1.10;;;20.80;92.10;;;;;;5013304;28;20200;-68
2023/08/31 04:01:51;;;;;;;1.77;1.40;;;20.80;92.10;;;;;;5007404;28;20250;-68
2023/08/31 04:04:18;;;;;;;1.08;1.08;;;20.80;92.10;;;;;;5012422;28;20254;-69
2023/08/31 04:06:46;;;;;;;1.33;1.23;;;20.80;92.10;;;;;;5035477;28;20203;-67
2023/08/31 04:09:12;;;;;;;1.30;1.20;;;20.80;92.10;;;;;;5024957;28;20198;-68
2023/08/31 04:11:37;;;;;;;1.30;1.05;;;20.80;92.10;;;;;;5045657;28;20221;-68
2023/08/31 04:14:03;;;;;;;1.40;1.30;;;20.80;92.10;;;;;;5040177;28;20179;-69
2023/08/31 04:16:29;;;;;;;1.00;1.00;;;20.80;92.10;;;;;;5044754;28;20206;-68
2023/08/31 04:18:55;;;;;;;1.38;1.27;;;20.80;92.10;;;;;;5053574;28;20190;-69
2023/08/31 04:21:21;;;;;;;1.50;1.38;;;20.80;92.10;;;;;;5045355;28;20191;-68
2023/08/31 04:23:47;;;;;;;1.33;1.23;;;20.80;92.10;;;;;;5028847;28;20239;-68
2023/08/31 04:26:13;;;;;;;1.20;1.17;;;20.80;92.10;;;;;;5045239;28;20214;-68
2023/08/31 04:28:43;;;;;;;1.20;1.10;;;20.80;92.10;;;;;;5037176;28;20187;-68
2023/08/31 04:31:09;;;;;;;1.15;1.15;;;20.80;92.10;;;;;;5036774;28;20217;-68
2023/08/31 04:33:37;;;;;;;1.27;1.17;;;20.80;92.10;;;;;;5044944;28;20193;-68
2023/08/31 04:36:06;;;;;;;1.23;1.13;;;20.80;92.10;;;;;;5041519;28;20191;-69
2023/08/31 04:38:34;;;;;;;1.20;1.13;;;20.80;92.20;;;;;;5044810;28;20269;-69
2023/08/31 04:41:01;;;;;;;1.00;1.00;;;20.80;92.10;;;;;;5053116;28;20191;-68
2023/08/31 04:43:27;;;;;;;1.27;1.23;;;20.80;92.50;;;;;;5042203;28;20196;-68
2023/08/31 04:45:54;;;;;;;1.00;1.00;;;20.70;92.10;;;;;;5047180;28;20198;-68
2023/08/31 04:48:21;;;;;;;1.20;1.10;;;20.80;92.10;;;;;;5035002;28;20194;-69
2023/08/31 04:50:47;;;;;;;1.42;1.33;;;20.80;92.10;;;;;;5029818;28;20620;-68
2023/08/31 04:53:13;;;;;;;1.30;1.20;;;20.70;92.10;;;;;;5027911;28;20195;-68
2023/08/31 04:55:39;;;;;;;1.05;1.00;;;20.70;92.10;;;;;;5053780;28;20187;-68
2023/08/31 04:58:05;;;;;;;1.10;1.10;;;20.80;92.10;;;;;;5044904;28;20187;-68
2023/08/31 05:00:31;;;;;;;1.20;1.10;;;20.80;92.10;;;;;;5034511;28;20198;-69
2023/08/31 05:02:57;;;;;;;1.10;1.00;;;20.80;92.10;;;;;;5054222;28;20232;-68
2023/08/31 05:05:23;;;;;;;1.00;1.00;;;20.80;92.20;;;;;;5052643;28;20198;-68
2023/08/31 05:07:49;;;;;;;0.82;0.80;;;20.80;92.10;;;;;;5035922;28;20248;-68
2023/08/31 05:10:16;;;;;;;1.08;1.00;;;20.70;92.10;;;;;;5052498;28;20214;-68
2023/08/31 05:12:42;;;;;;;2.22;1.35;;;20.80;92.20;;;;;;5035936;28;20654;-68
2023/08/31 05:15:09;;;;;;;1.20;1.10;;;20.80;92.10;;;;;;5036050;28;20282;-68
2023/08/31 05:17:35;;;;;;;1.20;1.10;;;20.70;92.10;;;;;;5049210;28;20297;-69
2023/08/31 05:20:01;;;;;;;1.30;1.20;;;20.70;92.10;;;;;;5024381;28;20311;-68
2023/08/31 05:22:26;;;;;;;1.33;1.23;;;20.70;92.10;;;;;;5041346;28;20203;-68
2023/08/31 05:24:52;;;;;;;1.08;1.00;;;20.80;92.20;;;;;;5026243;28;20213;-68
2023/08/31 05:27:18;;;;;;;1.10;1.10;;;20.70;92.10;;;;;;5052065;28;20212;-69
2023/08/31 05:29:43;;;;;;;1.38;1.27;;;20.70;92.10;;;;;;5052071;28;20240;-68
2023/08/31 05:32:09;;;;;;;1.48;1.10;;;20.70;92.10;;;;;;5046585;28;20190;-70
2023/08/31 05:34:37;;;;;;;1.10;0.93;;;20.70;92.10;;;;;;5052106;28;20201;-68
2023/08/31 05:37:07;;;;;;;1.02;1.00;;;20.70;92.10;;;;;;5051897;28;20198;-68
2023/08/31 05:39:32;;;;;;;1.00;0.90;;;20.80;92.10;;;;;;5043782;28;20190;-69
2023/08/31 05:41:58;;;;;;;1.10;1.00;;;20.70;92.10;;;;;;5044888;28;20186;-68
2023/08/31 05:44:24;;;;;;;1.38;1.27;;;20.70;92.10;;;;;;5025734;28;20190;-68
2023/08/31 05:46:49;;;;;;;0.98;0.98;;;20.70;92.10;;;;;;5043063;28;20221;-68
2023/08/31 05:49:15;;;;;;;1.27;1.17;;;20.70;92.20;;;;;;5039566;28;20245;-68
2023/08/31 05:51:41;;;;;;;1.10;1.10;;;20.70;92.10;;;;;;5047955;28;20186;-68
2023/08/31 05:54:11;;;;;;;1.45;1.35;;;20.80;92.20;;;;;;5028720;28;20188;-68
2023/08/31 05:56:40;;;;;;;1.20;1.10;;;20.80;92.10;;;;;;5025705;28;20209;-68
2023/08/31 05:59:07;;;;;;;1.10;1.00;;;20.70;92.10;;;;;;5051566;28;20194;-69
2023/08/31 06:01:34;;;;;;;1.17;1.08;;;20.70;92.10;;;;;;5051746;28;20195;-70
2023/08/31 06:04:00;;;;;;;1.05;1.00;;;20.70;92.10;;;;;;5034888;28;20273;-68
2023/08/31 06:06:26;;;;;;;1.20;1.10;;;20.70;92.10;;;;;;5051177;28;20222;-68
2023/08/31 06:08:53;;;;;;;1.48;1.23;;;20.70;92.10;;;;;;5047870;28;20202;-69
2023/08/31 06:11:19;;;;;;;1.13;1.02;;;20.70;92.10;;;;;;5047637;28;20220;-68
2023/08/31 06:13:45;;;;;;;1.55;1.13;;;20.70;92.10;;;;;;5044805;28;20183;-69
2023/08/31 06:16:10;;;;;;;1.40;1.30;;;20.70;92.10;;;;;;5047855;28;20202;-68
2023/08/31 06:18:36;;;;;;;1.08;1.00;;;20.70;92.10;;;;;;5042914;28;20654;-68
2023/08/31 06:21:02;;;;;;;1.27;1.15;;;20.70;92.10;;;;;;5043816;28;20206;-68
2023/08/31 06:23:28;;;;;;;1.30;1.20;;;20.70;92.10;;;;;;5047094;28;20198;-68
2023/08/31 06:25:53;;;;;;;2.80;1.45;;;20.70;92.00;;;;;;5047822;28;20221;-70
2023/08/31 06:28:19;;;;;;;1.40;1.30;;;20.80;92.10;;;;;;5034725;28;20194;-68
2023/08/31 06:30:46;;;;;;;1.33;1.23;;;20.70;92.00;;;;;;5050962;28;20220;-68
2023/08/31 06:33:17;;;;;;;1.35;1.25;;;20.70;92.00;;;;;;5034810;28;20236;-68
2023/08/31 06:35:46;;;;;;;1.30;1.20;;;20.70;92.00;;;;;;5027431;28;20254;-69
2023/08/31 06:38:12;;;;;;;1.50;1.10;;;20.70;92.00;;;;;;5039202;28;20186;-69
2023/08/31 06:40:38;;;;;;;1.00;1.00;;;20.80;92.10;;;;;;5049849;28;20194;-68
2023/08/31 06:43:03;;;;;;;2.00;1.20;;;20.80;92.10;;;;;;5016921;28;20202;-68
2023/08/31 06:45:29;;;;;;;1.30;1.20;;;20.80;92.00;;;;;;5039549;28;20198;-68
2023/08/31 06:47:55;;;;;;;1.52;1.42;;;20.80;92.10;;;;;;5044065;28;20653;-68
2023/08/31 06:50:21;;;;;;;1.50;1.38;;;20.80;92.10;;;;;;5043892;28;20212;-69
2023/08/31 06:52:46;;;;;;;1.40;1.30;;;20.80;92.10;;;;;;5048438;28;20186;-69
2023/08/31 06:55:12;;;;;;;2.45;1.50;;;20.80;92.00;;;;;;5045826;28;20209;-69
2023/08/31 06:57:38;;;;;;;1.17;1.08;;;20.80;92.00;;;;;;5047916;28;20210;-68
2023/08/31 07:00:06;;;;;;;1.35;1.13;;;20.80;92.00;;;;;;5036934;28;20269;-69
2023/08/31 07:02:34;;;;;;;1.23;1.13;;;20.80;92.00;;;;;;5051506;28;20205;-68
2023/08/31 07:05:00;;;;;;;1.48;1.38;;;20.80;92.00;;;;;;5050315;28;20197;-68
2023/08/31 07:07:26;;;;;;;1.70;1.60;;;20.80;92.00;;;;;;5045097;28;20223;-68
2023/08/31 07:09:51;;;;;;;1.70;1.60;;;20.80;92.00;;;;;;5051595;28;20202;-68
2023/08/31 07:12:17;;;;;;;2.05;1.40;;;20.80;91.90;;;;;;5042415;28;20195;-69
2023/08/31 07:14:43;;;;;;;2.28;1.80;;;20.90;92.00;;;;;;5051216;28;20194;-69
2023/08/31 07:17:09;;;;;;;2.53;1.65;;;20.80;92.00;;;;;;5025480;28;20221;-70
2023/08/31 07:19:38;;;;;;;1.98;1.83;;;20.80;92.00;;;;;;5051699;28;20198;-68
2023/08/31 07:22:06;;;;;;;1.80;1.70;;;20.80;91.90;;;;;;5050617;28;20691;-68
2023/08/31 07:24:31;;;;;;;1.75;1.65;;;20.80;92.00;;;;;;5042019;28;20194;-69
2023/08/31 07:26:57;;;;;;;1.85;1.75;;;20.80;91.90;;;;;;5047527;28;20298;-70
2023/08/31 07:29:23;;;;;;;2.22;1.75;;;20.90;92.00;;;;;;5024197;28;20190;-68
2023/08/31 07:31:49;;;;;;;2.42;1.98;;;20.90;92.00;;;;;;5043273;28;20187;-68
2023/08/31 07:34:14;;;;;;;2.58;2.38;;;20.90;91.90;;;;;;5040608;28;20194;-68
2023/08/31 07:36:40;;;;;;;2.58;2.05;;;20.90;91.90;;;;;;5040982;28;20198;-68
2023/08/31 07:39:07;;;;;;;2.00;1.90;;;20.80;91.90;;;;;;5050298;28;20666;-69
2023/08/31 07:41:32;;;;;;;2.20;2.00;;;20.80;91.90;;;;;;5047459;28;20190;-69
2023/08/31 07:43:58;;;;;;;2.72;1.83;;;20.90;92.00;;;;;;5034955;28;20565;-68
2023/08/31 07:46:24;;;;;;;2.00;1.90;;;20.90;91.90;;;;;;5032120;28;20218;-68
2023/08/31 07:48:50;;;;;;;2.75;2.20;;;20.90;91.80;;;;;;5025113;28;20179;-69
2023/08/31 07:51:16;;;;;;;2.10;1.90;;;20.90;91.80;;;;;;5046081;28;20236;-68
2023/08/31 07:53:42;;;;;;;2.30;2.10;;;20.90;91.80;;;;;;5054132;28;20269;-67
2023/08/31 07:56:08;;;;;;;2.28;1.90;;;20.90;91.80;;;;;;5036863;28;20210;-68
2023/08/31 07:58:33;;;;;;;2.40;2.20;;;20.90;91.70;;;;;;5045128;28;20180;-68
2023/08/31 08:00:59;;;;;;;2.38;1.80;;;20.90;91.80;;;;;;5045621;28;20213;-69
2023/08/31 08:03:25;;;;;;;2.40;2.10;;;20.90;91.80;;;;;;5046770;28;20288;-69
2023/08/31 08:05:51;;;;;;;2.40;2.20;;;20.90;91.70;;;;;;5047943;28;20225;-68
2023/08/31 08:08:17;;;;;;;2.20;2.05;;;20.90;91.70;;;;;;5041729;28;20205;-68
2023/08/31 08:10:43;;;;;;;2.67;2.47;;;20.90;91.60;;;;;;5043096;28;20207;-68
2023/08/31 08:13:09;;;;;;;2.03;1.83;;;20.90;91.50;;;;;;5033825;28;20184;-68
2023/08/31 08:15:35;;;;;;;2.60;2.15;;;20.90;91.50;;;;;;5043896;28;20191;-71
2023/08/31 08:18:01;;;;;;;2.40;2.20;;;20.90;91.60;;;;;;5053669;28;20209;-68
2023/08/31 08:20:30;;;;;;;2.40;2.20;;;20.90;91.30;;;;;;5047055;28;20206;-68
2023/08/31 08:22:57;;;;;;;2.60;2.40;;;20.90;91.30;;;;;;5046676;28;20194;-68
2023/08/31 08:25:23;;;;;;;2.88;2.30;;;20.90;91.40;;;;;;5047623;28;20201;-68
2023/08/31 08:27:50;;;;;;;2.50;2.30;;;20.90;91.40;;;;;;5028516;28;20293;-68
2023/08/31 08:30:15;;;;;;;3.05;2.30;;;21.00;91.20;;;;;;5047463;28;20682;-68
2023/08/31 08:32:42;;;;;;;2.10;2.00;;;21.00;91.10;;;;;;5052596;28;20198;-68
2023/08/31 08:35:08;;;;;;;2.50;2.30;;;21.00;91.40;;;;;;5041134;28;20191;-68
2023/08/31 08:37:34;;;;;;;2.85;2.13;;;21.00;91.60;;;;;;5025677;28;20566;-70
2023/08/31 08:40:01;;;;;;;2.40;2.20;;;21.00;91.20;;;;;;5054515;28;20233;-69
2023/08/31 08:42:31;;;;;;;2.42;2.22;;;21.10;91.00;;;;;;5024629;28;20184;-67
2023/08/31 08:44:58;;;;;;;2.40;2.17;;;21.00;91.00;;;;;;5033081;28;20195;-68
2023/08/31 08:47:27;;;;;;;3.53;2.00;;;21.00;90.90;;;;;;5040138;28;20302;-68
2023/08/31 08:49:55;;;;;;;2.22;2.03;;;21.00;91.00;;;;;;5036953;28;20221;-69
2023/08/31 08:52:22;;;;;;;2.30;2.10;;;21.00;91.00;;;;;;5036503;28;20186;-68
2023/08/31 08:54:49;;;;;;;2.45;2.00;;;21.00;90.70;;;;;;5036109;28;20198;-68
2023/08/31 08:57:15;;;;;;;2.20;2.00;;;21.00;90.60;;;;;;5046823;28;20246;-68
2023/08/31 08:59:40;;;;;;;2.00;1.80;;;21.00;90.50;;;;;;5025220;28;20183;-68
2023/08/31 09:02:11;;;;;;;2.08;1.88;;;21.00;90.90;;;;;;5053854;28;20240;-69
2023/08/31 09:04:37;;;;;;;3.00;1.65;;;21.00;91.10;;;;;;5052860;28;20186;-68
2023/08/31 09:07:03;;;;;;;3.13;1.80;;;21.00;91.30;;;;;;5045634;28;20874;-68
2023/08/31 09:09:29;;;;;;;1.98;1.88;;;21.10;90.80;;;;;;5053672;28;20277;-68
2023/08/31 09:11:58;;;;;;;2.55;2.10;;;21.00;90.70;;;;;;5053647;28;20191;-68
2023/08/31 09:14:23;;;;;;;2.20;1.60;;;21.10;91.10;;;;;;5052567;28;20190;-69
2023/08/31 09:16:51;;;;;;;2.33;1.80;;;21.10;90.90;;;;;;5052335;28;20252;-68
2023/08/31 09:19:27;;;;;;;2.42;1.77;;;21.10;91.00;;;;;;5027375;28;20194;-68
2023/08/31 09:21:55;;;;;;;2.70;1.90;;;21.10;91.10;;;;;;5045077;28;20198;-68
2023/08/31 09:24:23;;;;;;;2.00;1.70;;;21.10;91.00;;;;;;5044214;28;20195;-69
2023/08/31 09:26:55;;;;;;;2.80;1.83;;;21.10;90.80;;;;;;5043809;28;20205;-68
2023/08/31 09:29:21;;;;;;;1.90;1.80;;;21.10;90.60;;;;;;5027479;28;20210;-68
2023/08/31 09:31:47;;;;;;;2.25;1.83;;;21.10;90.60;;;;;;5043880;28;20242;-68
2023/08/31 09:34:16;;;;;;;2.00;1.80;;;21.10;90.70;;;;;;5045513;28;20199;-68
2023/08/31 09:36:42;;;;;;;3.90;2.13;;;21.10;90.50;;;;;;5035380;28;20207;-68
2023/08/31 09:39:09;;;;;;;2.15;1.92;;;21.10;90.20;;;;;;5043774;28;20714;-68
2023/08/31 09:41:51;;;;;;;1.98;1.85;;;21.10;90.00;;;;;;5043688;28;20217;-68
2023/08/31 09:44:19;;;;;;;2.10;1.90;;;21.10;90.30;;;;;;5033828;28;20195;-68
2023/08/31 09:46:46;;;;;;;2.08;1.90;;;21.10;90.00;;;;;;5049171;28;20293;-69
2023/08/31 09:49:15;;;;;;;3.00;2.42;;;21.10;90.20;;;;;;5047107;28;20215;-69
2023/08/31 09:51:46;;;;;;;3.58;2.15;;;21.10;90.90;;;;;;5049813;28;20214;-69
2023/08/31 09:54:18;;;;;;;2.10;1.90;;;21.10;90.60;;;;;;5044499;28;20277;-69
2023/08/31 09:56:46;;;;;;;2.58;1.90;;;21.10;90.60;;;;;;5030004;28;20215;-68
2023/08/31 09:59:14;;;;;;;2.38;1.80;;;21.10;89.30;;;;;;5033333;28;20186;-68
2023/08/31 10:01:42;;;;;;;2.72;2.00;;;21.10;89.20;;;;;;5035239;28;20206;-68
2023/08/31 10:04:08;;;;;;;2.53;1.90;;;21.10;89.30;;;;;;5034332;28;20225;-69
2023/08/31 10:06:38;;;;;;;1.85;1.58;;;21.10;89.60;;;;;;5051354;28;20288;-68
2023/08/31 10:09:04;;;;;;;3.35;1.92;;;21.10;89.60;;;;;;5026458;28;20217;-68
2023/08/31 10:11:31;;;;;;;3.33;2.15;;;21.10;89.10;;;;;;5051842;28;20214;-68
2023/08/31 10:13:59;;;;;;;4.07;3.00;;;21.10;89.10;;;;;;5047396;28;20198;-68
2023/08/31 10:16:28;;;;;;;2.90;2.63;;;21.20;89.70;;;;;;5041825;28;20223;-68
2023/08/31 10:18:56;;;;;;;3.97;3.33;;;21.10;89.30;;;;;;5041355;28;20175;-68
2023/08/31 10:21:23;;;;;;;5.18;3.67;;;21.10;89.10;;;;;;5044220;28;20950;-69
2023/08/31 10:23:50;;;;;;;7.65;4.25;;;21.10;89.30;;;;;;5026375;28;20248;-68
2023/08/31 10:26:31;;;;;;;7.95;5.07;;;21.20;88.70;;;;;;5050867;28;20271;-69
2023/08/31 10:28:58;;;;;;;10.73;5.13;;;21.10;89.30;;;;;;5044128;28;20205;-68
2023/08/31 10:31:30;;;;;;;7.38;5.10;;;21.10;90.10;;;;;;5045360;28;20709;-70
2023/08/31 10:34:09;;;;;;;9.32;4.95;;;21.10;89.60;;;;;;5044465;28;20193;-67
2023/08/31 10:36:45;;;;;;;9.88;6.53;;;21.10;90.00;;;;;;5039416;28;20203;-68
2023/08/31 10:39:15;;;;;;;10.73;7.25;;;21.20;89.70;;;;;;5030966;28;20189;-68
2023/08/31 10:41:52;;;;;;;12.10;6.68;;;21.10;90.00;;;;;;5026354;28;20198;-68
2023/08/31 10:44:26;;;;;;;11.18;6.63;;;21.20;89.20;;;;;;5027958;28;20194;-69
2023/08/31 10:46:53;;;;;;;11.48;7.57;;;21.20;88.70;;;;;;5033173;28;20210;-68
2023/08/31 10:49:22;;;;;;;11.73;7.38;;;21.20;88.50;;;;;;5034703;28;20194;-68
2023/08/31 10:51:56;;;;;;;9.65;6.85;;;21.20;88.70;;;;;;5027016;28;20217;-69
2023/08/31 10:54:37;;;;;;;9.27;6.32;;;21.20;89.70;;;;;;5040014;28;20221;-68
2023/08/31 10:59:51;;;;;;;10.70;7.15;;;21.20;89.40;;;;;;5040782;28;20190;-68
2023/08/31 11:02:37;;;;;;;12.80;7.32;;;21.20;89.70;;;;;;5038403;28;20211;-68
2023/08/31 11:05:17;;;;;;;15.80;8.27;;;21.10;88.00;;;;;;5035321;28;20186;-67
2023/08/31 11:07:45;;;;;;;10.88;7.18;;;21.20;88.10;;;;;;5051739;28;20217;-68
2023/08/31 11:10:19;;;;;;;14.55;9.15;;;21.20;90.20;;;;;;5025948;28;20217;-69
2023/08/31 11:12:54;;;;;;;11.45;7.30;;;21.20;89.20;;;;;;5050019;28;20186;-68
2023/08/31 11:15:23;;;;;;;14.00;7.47;;;21.20;89.30;;;;;;5042318;28;20268;-68
2023/08/31 11:17:51;;;;;;;12.02;8.65;;;21.20;89.70;;;;;;5049764;28;20217;-69
2023/08/31 11:20:20;;;;;;;10.60;7.53;;;21.20;89.10;;;;;;5026557;28;20281;-69
2023/08/31 11:22:55;;;;;;;11.48;7.32;;;21.20;89.40;;;;;;5045317;28;20186;-68
2023/08/31 11:25:24;;;;;;;13.68;7.82;;;21.20;89.90;;;;;;5036796;28;20191;-69
2023/08/31 11:28:04;;;;;;;11.13;6.93;;;21.20;89.80;;;;;;5034717;28;20238;-68
2023/08/31 11:30:31;;;;;;;11.98;7.50;;;21.20;88.50;;;;;;5054341;28;20213;-68
2023/08/31 11:33:06;;;;;;;11.20;7.97;;;21.20;88.40;;;;;;5053231;28;20190;-68
2023/08/31 11:35:41;;;;;;;11.40;7.90;;;21.20;88.50;;;;;;5048599;28;20244;-69
2023/08/31 11:38:07;;;;;;;13.40;8.02;;;21.20;89.00;;;;;;5039173;28;20193;-69
2023/08/31 11:40:33;;;;;;;14.32;8.25;;;21.20;88.70;;;;;;5054150;28;20191;-68
2023/08/31 11:43:00;;;;;;;12.52;7.85;;;21.20;88.30;;;;;;5055186;28;20250;-69
2023/08/31 11:45:27;;;;;;;13.63;8.32;;;21.20;88.00;;;;;;5037418;28;20197;-68
2023/08/31 11:47:55;;;;;;;10.68;7.80;;;21.20;88.20;;;;;;5045824;28;20393;-68
2023/08/31 11:50:22;;;;;;;14.65;7.95;;;21.20;88.10;;;;;;5043877;28;20285;-68
2023/08/31 11:52:48;;;;;;;14.98;8.88;;;21.20;88.40;;;;;;5050286;28;20187;-68
2023/08/31 11:55:19;;;;;;;13.20;8.70;;;21.20;89.20;;;;;;5046626;28;20182;-68
2023/08/31 11:57:54;;;;;;;12.18;8.13;;;21.20;90.00;;;;;;5037253;28;20229;-68
2023/08/31 12:00:22;;;;;;;16.23;8.98;;;21.20;90.10;;;;;;5049917;28;20191;-69
2023/08/31 12:02:58;;;;;;;10.30;7.25;;;21.20;90.00;;;;;;5050347;28;20193;-69
2023/08/31 12:05:23;;;;;;;13.27;7.32;;;21.20;88.70;;;;;;5039509;28;20197;-67
2023/08/31 12:07:50;;;;;;;9.65;7.05;;;21.20;88.30;;;;;;5053774;28;20222;-68
2023/08/31 12:10:16;;;;;;;11.75;8.20;;;21.20;88.80;;;;;;5035030;28;20217;-68
2023/08/31 12:12:42;;;;;;;14.43;8.25;;;21.20;88.30;;;;;;5025677;28;20180;-69
2023/08/31 12:15:10;;;;;;;12.25;8.23;;;21.20;89.00;;;;;;5048947;28;20194;-69
2023/08/31 12:17:39;;;;;;;13.57;9.15;;;21.20;88.70;;;;;;5047933;28;20294;-69
2023/08/31 12:20:06;;;;;;;13.50;8.45;;;21.20;89.70;;;;;;5043291;28;20572;-69
2023/08/31 12:22:33;;;;;;;12.13;7.72;;;21.20;89.70;;;;;;5047193;28;20218;-68
2023/08/31 12:24:58;;;;;;;15.93;8.98;;;21.20;88.60;;;;;;5046101;28;20245;-70
2023/08/31 12:27:24;;;;;;;10.73;8.13;;;21.20;88.60;;;;;;5054537;28;20210;-68
2023/08/31 12:29:50;;;;;;;11.57;8.68;;;21.30;88.40;;;;;;5028719;28;20206;-68
2023/08/31 12:32:18;;;;;;;13.10;8.55;;;21.20;88.70;;;;;;5036843;28;20182;-67
2023/08/31 12:34:43;;;;;;;11.70;8.48;;;21.20;88.90;;;;;;5045870;28;20180;-68
2023/08/31 12:37:09;;;;;;;11.75;7.60;;;21.20;88.00;;;;;;5053202;28;20209;-68
2023/08/31 12:39:37;;;;;;;11.07;8.05;;;21.20;87.80;;;;;;5039018;28;20182;-69
2023/08/31 12:42:04;;;;;;;10.88;7.72;;;21.20;88.00;;;;;;5024088;28;20194;-68
2023/08/31 12:44:31;;;;;;;9.80;7.18;;;21.20;87.80;;;;;;5039078;28;20186;-69
2023/08/31 12:46:56;;;;;;;12.55;7.93;;;21.20;87.80;;;;;;5044951;28;20683;-68
2023/08/31 12:49:22;;;;;;;12.18;7.70;;;21.30;88.00;;;;;;5053148;28;20189;-68
2023/08/31 12:51:50;;;;;;;12.15;7.70;;;21.20;88.00;;;;;;5054090;28;20233;-68